Terminal Aerodrome Forecast
Issued by NWS Lubbock, TX

Home | Current Version | Previous Version | Text Only | Print | Product List | Glossary On
Versions: 1 2 3 4 5 6 7 8 9 10 11 12 13 14 15 16 17
290
FTUS44 KLUB 061723
TAFLBB
TAF
KLBB 061723Z 0618/0718 15023G33KT P6SM SCT120
     FM070200 14019KT P6SM SCT150
     FM071500 19020G30KT P6SM SCT150=

USA.gov is the U.S. government's official web portal to all federal, state and local government web resources and services.